Terminal Aerodrome Forecast
Issued by NWS

Home | Current Version | Previous Version | Text Only | Print | Product List | Glossary On
Versions: 1 2 3 4 5 6 7 8 9 10 11 12 13 14 15 16 17 18 19 20 21 22
956
FTUS43 KAPX 261410 AAA
TAFTVC
TAF AMD
KTVC 261410Z 2614/2712 27012KT P6SM FEW020 BKN040
     FM261500 26011G19KT P6SM BKN020 BKN040
     FM261700 26011G19KT P6SM VCSH BKN020 OVC040
     FM262100 29009KT P6SM VCSH OVC025
     FM270000 32009KT P6SM VCSH OVC020
     FM270300 32005KT P6SM BKN040
     FM270500 VRB03KT P6SM SCT080=

USA.gov is the U.S. government's official web portal to all federal, state and local government web resources and services.